createdAt,value
2019-03-28T00:02:07.248Z,18.40
2019-03-28T00:04:55.344Z,17.53
2019-03-28T00:07:43.960Z,16.93
2019-03-28T00:10:32.372Z,18.33
2019-03-28T00:13:20.498Z,17.73
2019-03-28T00:16:08.832Z,16.70
2019-03-28T00:18:57.677Z,18.10
2019-03-28T00:21:46.299Z,17.80
2019-03-28T00:24:43.466Z,16.63
2019-03-28T00:27:32.221Z,17.40
2019-03-28T00:30:21.532Z,17.20
2019-03-28T00:33:10.453Z,17.17
2019-03-28T00:35:59.241Z,18.37
2019-03-28T00:38:47.772Z,17.47
2019-03-28T00:41:36.360Z,16.70
2019-03-28T00:44:24.572Z,16.53
2019-03-28T00:47:13.110Z,17.27
2019-03-28T00:50:01.591Z,17.20
2019-03-28T00:52:49.933Z,16.70
2019-03-28T00:55:38.658Z,16.80
2019-03-28T00:58:27.122Z,16.53
2019-03-28T01:01:16.029Z,16.83
2019-03-28T01:04:04.548Z,18.33
2019-03-28T01:06:53.411Z,17.47
2019-03-28T01:09:41.588Z,17.50
2019-03-28T01:12:30.060Z,17.37
2019-03-28T01:15:18.632Z,17.10
2019-03-28T01:18:06.663Z,15.47
2019-03-28T01:20:55.077Z,17.37
2019-03-28T01:23:43.059Z,17.40
2019-03-28T01:26:31.273Z,17.43
2019-03-28T01:29:19.370Z,15.97
2019-03-28T01:32:07.416Z,15.70
2019-03-28T01:34:55.798Z,16.63
2019-03-28T01:37:44.570Z,18.30
2019-03-28T01:40:33.250Z,16.43
2019-03-28T01:43:21.369Z,16.90
2019-03-28T01:46:10.198Z,18.03
2019-03-28T01:48:58.830Z,16.60
2019-03-28T01:51:47.581Z,16.53
2019-03-28T01:54:35.357Z,17.03
2019-03-28T01:57:23.247Z,15.80
2019-03-28T02:00:12.608Z,15.50
2019-03-28T02:03:01.354Z,15.97
2019-03-28T02:05:49.981Z,15.23
2019-03-28T02:08:37.690Z,16.47
2019-03-28T02:11:26.466Z,15.70
2019-03-28T02:14:15.010Z,14.60
2019-03-28T02:17:03.515Z,16.10
2019-03-28T02:19:51.458Z,14.43
2019-03-28T02:22:39.492Z,15.60
2019-03-28T02:25:27.977Z,16.13
2019-03-28T02:28:16.394Z,15.43
2019-03-28T02:31:05.112Z,15.87
2019-03-28T02:33:53.379Z,15.47
2019-03-28T02:36:41.941Z,15.40
2019-03-28T02:39:30.461Z,14.27
2019-03-28T02:42:18.678Z,15.63
2019-03-28T02:45:07.747Z,15.07
2019-03-28T02:47:56.576Z,14.77
2019-03-28T02:50:45.422Z,15.87
2019-03-28T02:53:33.961Z,14.47
2019-03-28T02:56:22.630Z,13.80
2019-03-28T02:59:10.993Z,14.90
2019-03-28T03:01:59.605Z,14.93
2019-03-28T03:04:47.963Z,15.60
2019-03-28T03:07:36.581Z,14.57
2019-03-28T03:10:25.840Z,13.83
2019-03-28T03:13:14.118Z,14.60
2019-03-28T03:16:02.305Z,13.87
2019-03-28T03:18:50.627Z,13.83
2019-03-28T03:21:39.066Z,15.07
2019-03-28T03:24:11.382Z,14.30
2019-03-28T03:26:59.702Z,15.23
2019-03-28T03:29:48.309Z,14.40
2019-03-28T03:32:37.198Z,13.17
2019-03-28T03:35:25.966Z,13.00
2019-03-28T03:38:13.926Z,13.40
2019-03-28T03:41:02.628Z,13.70
2019-03-28T03:43:51.237Z,13.53
2019-03-28T03:46:39.154Z,13.57
2019-03-28T03:49:27.656Z,13.43
2019-03-28T03:52:16.186Z,14.13
2019-03-28T03:55:04.153Z,13.40
2019-03-28T03:57:52.441Z,14.13
2019-03-28T04:00:41.160Z,14.20
2019-03-28T04:03:29.653Z,13.53
2019-03-28T04:06:17.648Z,13.63
2019-03-28T04:09:06.581Z,13.83
2019-03-28T04:11:54.601Z,12.77
2019-03-28T04:14:43.315Z,13.33
2019-03-28T04:17:31.745Z,13.87
2019-03-28T04:20:19.962Z,14.30
2019-03-28T04:23:08.150Z,13.60
2019-03-28T04:25:56.965Z,13.60
2019-03-28T04:28:45.278Z,14.50
2019-03-28T04:31:33.719Z,13.87
2019-03-28T04:34:21.988Z,14.00
2019-03-28T04:37:10.500Z,14.30
2019-03-28T04:39:58.923Z,14.77
2019-03-28T04:42:46.822Z,14.43
2019-03-28T04:45:35.096Z,14.60
2019-03-28T04:48:23.456Z,15.13
2019-03-28T04:51:08.051Z,14.30
2019-03-28T04:53:56.515Z,14.60
2019-03-28T04:56:45.080Z,15.23
2019-03-28T04:59:33.510Z,13.80
2019-03-28T05:02:22.062Z,15.20
2019-03-28T05:05:10.055Z,15.43
2019-03-28T05:07:58.390Z,13.97
2019-03-28T05:10:47.111Z,15.73
2019-03-28T05:13:36.049Z,15.10
2019-03-28T05:16:24.473Z,15.40
2019-03-28T05:19:12.643Z,16.60
2019-03-28T05:21:54.877Z,16.30
2019-03-28T05:24:43.187Z,16.03
2019-03-28T05:27:31.238Z,15.50
2019-03-28T05:30:19.633Z,15.90
2019-03-28T05:33:08.248Z,16.63
2019-03-28T05:35:56.944Z,17.70
2019-03-28T05:38:45.189Z,15.83
2019-03-28T05:41:33.638Z,16.60
2019-03-28T05:44:22.406Z,16.93
2019-03-28T05:47:11.242Z,17.20
2019-03-28T05:49:59.400Z,17.67
2019-03-28T05:52:47.580Z,16.47
2019-03-28T05:55:36.227Z,16.67
2019-03-28T05:58:24.790Z,16.50
2019-03-28T06:01:12.938Z,16.97
2019-03-28T06:04:01.396Z,16.23
2019-03-28T06:06:49.995Z,16.43
2019-03-28T06:09:40.265Z,16.47
2019-03-28T06:12:28.667Z,16.30
2019-03-28T06:15:17.038Z,16.90
2019-03-28T06:18:05.212Z,15.70
2019-03-28T06:20:53.904Z,15.70
2019-03-28T06:23:42.426Z,16.50
2019-03-28T06:26:32.233Z,17.73
2019-03-28T06:29:24.219Z,18.47
2019-03-28T06:32:10.367Z,19.17
2019-03-28T06:34:58.752Z,19.90
2019-03-28T06:37:46.975Z,19.30
2019-03-28T06:40:35.276Z,18.70
2019-03-28T06:43:23.994Z,19.07
2019-03-28T06:46:12.448Z,21.00
2019-03-28T06:49:00.863Z,21.17
2019-03-28T06:51:49.447Z,20.13
2019-03-28T06:54:38.084Z,20.43
2019-03-28T06:57:26.654Z,20.03
2019-03-28T07:00:15.551Z,20.97
2019-03-28T07:03:03.652Z,21.30
2019-03-28T07:05:52.003Z,19.97
2019-03-28T07:08:40.409Z,19.93
2019-03-28T07:11:29.212Z,21.00
2019-03-28T07:14:17.960Z,20.57
2019-03-28T07:17:06.522Z,20.90
2019-03-28T07:19:54.995Z,21.00
2019-03-28T07:22:45.779Z,21.53
2019-03-28T07:25:33.024Z,21.53
2019-03-28T07:28:02.634Z,20.87
2019-03-28T07:30:51.261Z,22.33
2019-03-28T07:33:39.674Z,21.47
2019-03-28T07:36:28.148Z,20.50
2019-03-28T07:39:19.057Z,20.43
2019-03-28T07:42:06.761Z,21.77
2019-03-28T07:44:54.916Z,21.10
2019-03-28T07:47:43.205Z,20.00
2019-03-28T07:50:33.449Z,22.77
2019-03-28T07:53:22.278Z,21.80
2019-03-28T07:56:10.702Z,21.87
2019-03-28T07:58:59.564Z,22.30
2019-03-28T08:01:48.461Z,24.00
2019-03-28T08:04:37.188Z,23.17
2019-03-28T08:07:25.684Z,22.20
2019-03-28T08:10:14.056Z,23.40
2019-03-28T08:13:02.422Z,22.40
2019-03-28T08:15:51.253Z,23.80
2019-03-28T08:18:39.867Z,23.43
2019-03-28T08:21:28.320Z,22.97
2019-03-28T08:24:16.993Z,22.50
2019-03-28T08:27:05.851Z,22.80
2019-03-28T08:29:57.616Z,24.20
2019-03-28T08:32:43.995Z,23.60
2019-03-28T08:35:33.197Z,22.87
2019-03-28T08:38:22.135Z,23.30
2019-03-28T08:41:10.936Z,21.20
2019-03-28T08:43:59.477Z,22.13
2019-03-28T08:46:47.599Z,22.47
2019-03-28T08:49:35.949Z,22.03
2019-03-28T08:52:24.018Z,21.07
2019-03-28T08:55:14.300Z,21.63
2019-03-28T08:58:02.519Z,19.50
2019-03-28T09:00:52.831Z,20.10
2019-03-28T09:03:38.076Z,19.20
2019-03-28T09:06:27.023Z,19.07
2019-03-28T09:09:15.892Z,19.20
2019-03-28T09:12:04.066Z,20.63
2019-03-28T09:14:52.633Z,19.77
2019-03-28T09:17:41.262Z,19.67
2019-03-28T09:20:29.800Z,19.90
2019-03-28T09:23:18.080Z,20.17
2019-03-28T09:26:07.352Z,21.50
2019-03-28T09:28:55.638Z,19.67
2019-03-28T09:31:43.954Z,20.00
2019-03-28T09:34:32.664Z,20.03
2019-03-28T09:37:21.078Z,18.90
2019-03-28T09:40:09.538Z,18.67
2019-03-28T09:42:57.520Z,17.50
2019-03-28T09:45:46.835Z,18.17
2019-03-28T09:48:35.635Z,17.30
2019-03-28T09:51:23.948Z,19.37
2019-03-28T09:54:12.293Z,18.60
2019-03-28T09:57:00.795Z,19.20
2019-03-28T09:59:49.258Z,18.10
2019-03-28T10:02:37.719Z,16.37
2019-03-28T10:05:26.043Z,15.77
2019-03-28T10:08:13.960Z,13.70
2019-03-28T10:11:02.204Z,13.40
2019-03-28T10:13:50.757Z,13.70
2019-03-28T10:16:40.420Z,12.50
2019-03-28T10:19:29.137Z,13.67
2019-03-28T10:22:17.813Z,12.30
2019-03-28T10:25:06.219Z,13.63
2019-03-28T10:27:54.828Z,12.40
2019-03-28T10:30:43.972Z,13.53
2019-03-28T10:33:32.425Z,11.83
2019-03-28T10:36:20.877Z,13.20
2019-03-28T10:39:09.860Z,11.90
2019-03-28T10:41:58.794Z,12.80
2019-03-28T10:44:28.312Z,12.70
2019-03-28T10:47:16.644Z,13.17
2019-03-28T10:50:05.356Z,12.27
2019-03-28T10:52:54.305Z,12.90
2019-03-28T10:55:42.843Z,12.83
2019-03-28T10:58:30.960Z,12.60
2019-03-28T11:01:36.054Z,12.57
2019-03-28T11:04:09.320Z,14.60
2019-03-28T11:06:58.515Z,14.27
2019-03-28T11:09:47.474Z,14.43
2019-03-28T11:12:36.198Z,13.77
2019-03-28T11:15:24.987Z,13.73
2019-03-28T11:18:13.889Z,15.30
2019-03-28T11:21:02.694Z,14.00
2019-03-28T11:23:51.263Z,15.30
2019-03-28T11:26:39.881Z,14.63
2019-03-28T11:29:28.713Z,14.97
2019-03-28T11:32:17.204Z,17.47
2019-03-28T11:35:06.769Z,18.83
2019-03-28T11:37:55.795Z,16.80
2019-03-28T11:40:44.198Z,16.80
2019-03-28T11:43:32.835Z,16.97
2019-03-28T11:46:21.625Z,17.00
2019-03-28T11:49:09.996Z,16.77
2019-03-28T11:51:58.471Z,16.67
2019-03-28T11:54:46.927Z,16.50
2019-03-28T11:57:36.906Z,17.57
2019-03-28T12:00:25.250Z,18.20
2019-03-28T12:03:13.528Z,18.40
2019-03-28T12:06:02.130Z,18.30
2019-03-28T12:08:50.497Z,18.20
2019-03-28T12:11:38.483Z,18.03
2019-03-28T12:14:13.952Z,19.37
2019-03-28T12:17:02.802Z,17.23
2019-03-28T12:19:51.122Z,17.70
2019-03-28T12:22:38.996Z,16.37
2019-03-28T12:25:27.333Z,15.40
2019-03-28T12:28:15.438Z,15.57
2019-03-28T12:31:04.040Z,15.47
2019-03-28T12:33:52.461Z,16.10
2019-03-28T12:36:41.168Z,16.97
2019-03-28T12:39:29.758Z,18.00
2019-03-28T12:42:18.390Z,16.17
2019-03-28T12:45:07.611Z,15.07
2019-03-28T12:47:56.221Z,14.83
2019-03-28T12:50:58.026Z,15.17
2019-03-28T12:53:34.181Z,15.60
2019-03-28T12:56:22.414Z,16.10
2019-03-28T12:59:11.040Z,16.27
2019-03-28T13:01:59.916Z,15.03
2019-03-28T13:04:49.154Z,15.67
2019-03-28T13:07:36.621Z,15.60
2019-03-28T13:10:25.211Z,16.30
2019-03-28T13:13:13.466Z,16.37
2019-03-28T13:15:43.111Z,16.13
2019-03-28T13:18:31.960Z,16.40
2019-03-28T13:21:20.604Z,16.30
2019-03-28T13:24:09.157Z,15.73
2019-03-28T13:26:57.348Z,16.50
2019-03-28T13:29:45.826Z,16.30
2019-03-28T13:32:41.748Z,17.50
2019-03-28T13:35:24.133Z,16.10
2019-03-28T13:38:12.364Z,17.50
2019-03-28T13:41:01.096Z,17.33
2019-03-28T13:43:49.552Z,16.13
2019-03-28T13:46:37.960Z,17.53
2019-03-28T13:49:27.080Z,17.70
2019-03-28T13:52:15.627Z,16.23
2019-03-28T13:55:04.129Z,17.13
2019-03-28T13:57:52.938Z,17.23
2019-03-28T14:00:41.688Z,18.30
2019-03-28T14:03:29.816Z,16.70
2019-03-28T14:06:18.104Z,17.70
2019-03-28T14:09:07.379Z,17.87
2019-03-28T14:11:56.417Z,17.90
2019-03-28T14:14:45.164Z,18.20
2019-03-28T14:17:34.943Z,18.27
2019-03-28T14:20:24.058Z,17.80
2019-03-28T14:23:12.419Z,17.20
2019-03-28T14:26:00.693Z,16.57
2019-03-28T14:28:50.327Z,17.30
2019-03-28T14:31:39.394Z,18.50
2019-03-28T14:34:27.374Z,17.90
2019-03-28T14:36:56.950Z,18.73
2019-03-28T14:39:27.533Z,17.87
2019-03-28T14:41:57.355Z,16.03
2019-03-28T14:44:27.166Z,17.00
2019-03-28T14:46:57.193Z,17.63
2019-03-28T14:49:27.226Z,16.77
2019-03-28T14:51:57.636Z,17.00
2019-03-28T14:54:45.782Z,19.10
2019-03-28T14:57:33.897Z,18.13
2019-03-28T15:00:29.505Z,17.57
2019-03-28T15:03:26.123Z,16.23
2019-03-28T15:06:08.169Z,15.90
2019-03-28T15:08:57.074Z,17.73
2019-03-28T15:11:45.630Z,16.30
2019-03-28T15:14:33.578Z,17.53
2019-03-28T15:17:22.700Z,18.13
2019-03-28T15:20:11.572Z,15.83
2019-03-28T15:23:00.134Z,15.63
2019-03-28T15:25:49.007Z,16.00
2019-03-28T15:28:37.774Z,15.33
2019-03-28T15:31:26.565Z,17.17
2019-03-28T15:34:15.374Z,16.20
2019-03-28T15:36:54.051Z,15.50
2019-03-28T15:39:42.950Z,17.17
2019-03-28T15:42:31.257Z,16.70
2019-03-28T15:45:20.382Z,16.57
2019-03-28T15:48:09.911Z,15.07
2019-03-28T15:50:58.773Z,17.03
2019-03-28T15:53:47.227Z,15.10
2019-03-28T15:56:35.531Z,16.03
2019-03-28T15:59:24.593Z,15.00
2019-03-28T16:02:13.408Z,16.23
2019-03-28T16:05:01.824Z,15.70
2019-03-28T16:07:50.620Z,15.23
2019-03-28T16:10:39.313Z,15.93
2019-03-28T16:13:27.766Z,16.03
2019-03-28T16:16:16.532Z,15.63
2019-03-28T16:19:05.865Z,16.33
2019-03-28T16:21:54.331Z,17.10
2019-03-28T16:24:36.024Z,15.70
2019-03-28T16:27:13.819Z,15.07
2019-03-28T16:30:02.649Z,16.10
2019-03-28T16:32:50.826Z,15.93
2019-03-28T16:35:39.503Z,14.70
2019-03-28T16:38:27.880Z,15.43
2019-03-28T16:41:15.993Z,14.43
2019-03-28T16:44:04.230Z,15.27
2019-03-28T16:46:53.034Z,18.33
2019-03-28T16:49:41.870Z,22.17
2019-03-28T16:52:30.800Z,21.47
2019-03-28T16:55:26.193Z,22.40
2019-03-28T16:58:08.861Z,21.70
2019-03-28T17:00:57.151Z,22.90
2019-03-28T17:03:45.561Z,26.13
2019-03-28T17:06:34.357Z,25.53
2019-03-28T17:09:22.752Z,27.70
2019-03-28T17:12:11.066Z,27.80
2019-03-28T17:14:59.245Z,27.80
2019-03-28T17:17:48.003Z,31.20
2019-03-28T17:20:36.787Z,29.63
2019-03-28T17:23:25.141Z,31.40
2019-03-28T17:26:14.101Z,34.20
2019-03-28T17:29:02.330Z,33.10
2019-03-28T17:31:51.146Z,35.17
2019-03-28T17:34:39.218Z,35.23
2019-03-28T17:37:27.772Z,36.40
2019-03-28T17:40:16.332Z,38.60
2019-03-28T17:43:04.489Z,39.10
2019-03-28T17:45:52.959Z,36.80
2019-03-28T17:48:41.089Z,36.17
2019-03-28T17:51:29.210Z,37.70
2019-03-28T17:54:17.409Z,37.80
2019-03-28T17:57:06.025Z,36.57
2019-03-28T17:59:54.145Z,37.43
2019-03-28T18:02:42.203Z,37.60
2019-03-28T18:05:30.569Z,37.70
2019-03-28T18:08:19.841Z,36.80
2019-03-28T18:11:08.426Z,38.67
2019-03-28T18:13:57.357Z,39.87
2019-03-28T18:16:46.227Z,36.37
2019-03-28T18:19:35.003Z,36.33
2019-03-28T18:22:24.048Z,37.50
2019-03-28T18:25:13.319Z,37.50
2019-03-28T18:28:01.748Z,39.13
2019-03-28T18:30:50.297Z,38.13
2019-03-28T18:33:39.008Z,37.57
2019-03-28T18:36:27.706Z,38.83
2019-03-28T18:39:16.727Z,39.13
2019-03-28T18:42:05.428Z,36.60
2019-03-28T18:44:53.783Z,38.77
2019-03-28T18:47:42.357Z,38.20
2019-03-28T18:50:30.973Z,38.97
2019-03-28T18:53:20.266Z,40.57
2019-03-28T18:56:09.084Z,39.67
2019-03-28T18:58:57.859Z,40.30
2019-03-28T19:01:46.388Z,39.80
2019-03-28T19:04:34.942Z,41.57
2019-03-28T19:07:24.629Z,41.67
2019-03-28T19:10:13.442Z,41.23
2019-03-28T19:13:04.563Z,40.20
2019-03-28T19:15:51.481Z,42.40
2019-03-28T19:18:39.861Z,41.20
2019-03-28T19:21:28.614Z,40.10
2019-03-28T19:24:17.620Z,39.63
2019-03-28T19:26:53.883Z,41.20
2019-03-28T19:29:42.804Z,42.50
2019-03-28T19:32:33.203Z,39.33
2019-03-28T19:35:32.492Z,40.37
2019-03-28T19:38:11.958Z,40.63
2019-03-28T19:41:00.945Z,42.20
2019-03-28T19:43:50.099Z,40.40
2019-03-28T19:46:38.942Z,41.40
2019-03-28T19:49:27.764Z,41.17
2019-03-28T19:52:16.762Z,41.27
2019-03-28T19:54:52.549Z,42.73
2019-03-28T19:57:41.457Z,44.00
2019-03-28T20:00:29.818Z,42.00
2019-03-28T20:03:18.271Z,42.50
2019-03-28T20:06:06.523Z,41.60
2019-03-28T20:08:36.605Z,42.07
2019-03-28T20:11:26.054Z,44.17
2019-03-28T20:14:15.783Z,42.80
2019-03-28T20:17:07.037Z,44.67
2019-03-28T20:19:55.843Z,41.03
2019-03-28T20:22:45.099Z,42.20
2019-03-28T20:25:34.441Z,45.47
2019-03-28T20:28:22.791Z,44.37
2019-03-28T20:31:12.676Z,42.70
2019-03-28T20:34:01.642Z,43.20
2019-03-28T20:36:52.704Z,44.30
2019-03-28T20:39:40.538Z,43.37
2019-03-28T20:42:29.046Z,42.23
2019-03-28T20:45:17.837Z,43.70
2019-03-28T20:48:07.004Z,45.57
2019-03-28T20:50:55.121Z,42.97
2019-03-28T20:53:43.684Z,42.63
2019-03-28T20:56:32.378Z,44.10
2019-03-28T20:59:21.083Z,45.10
2019-03-28T21:02:09.855Z,44.70
2019-03-28T21:04:39.549Z,43.33
2019-03-28T21:07:27.865Z,45.00
2019-03-28T21:10:24.249Z,44.00
2019-03-28T21:13:12.473Z,45.27
2019-03-28T21:16:01.358Z,46.37
2019-03-28T21:18:49.547Z,46.10
2019-03-28T21:21:37.697Z,44.47
2019-03-28T21:24:26.630Z,43.87
2019-03-28T21:27:15.262Z,46.67
2019-03-28T21:30:03.888Z,48.97
2019-03-28T21:32:55.671Z,45.87
2019-03-28T21:35:43.339Z,47.03
2019-03-28T21:38:32.135Z,47.20
2019-03-28T21:41:21.322Z,46.10
2019-03-28T21:44:09.893Z,45.60
2019-03-28T21:46:58.211Z,47.10
2019-03-28T21:49:47.381Z,45.90
2019-03-28T21:52:35.730Z,47.03
2019-03-28T21:55:24.262Z,47.00
2019-03-28T21:58:13.562Z,47.40
2019-03-28T22:01:02.253Z,47.43
2019-03-28T22:03:51.790Z,46.97
2019-03-28T22:06:43.061Z,47.20
2019-03-28T22:09:30.822Z,47.27
2019-03-28T22:12:19.200Z,47.40
2019-03-28T22:15:08.377Z,49.30
2019-03-28T22:17:56.491Z,48.37
2019-03-28T22:20:38.672Z,47.40
2019-03-28T22:23:27.473Z,48.50
2019-03-28T22:25:57.542Z,48.23
2019-03-28T22:28:45.598Z,48.40
2019-03-28T22:31:34.358Z,48.63
2019-03-28T22:34:22.892Z,49.07
2019-03-28T22:37:11.383Z,53.77
2019-03-28T22:39:59.914Z,51.70
2019-03-28T22:42:48.098Z,50.97
2019-03-28T22:45:36.598Z,50.53
2019-03-28T22:48:25.459Z,51.20
2019-03-28T22:51:14.060Z,49.20
2019-03-28T22:54:02.784Z,50.43
2019-03-28T22:56:51.112Z,50.03
2019-03-28T22:59:39.778Z,49.40
2019-03-28T23:02:28.895Z,50.50
2019-03-28T23:05:17.744Z,48.40
2019-03-28T23:08:06.365Z,50.43
2019-03-28T23:10:55.598Z,50.00
2019-03-28T23:13:44.374Z,50.40
2019-03-28T23:16:32.796Z,50.90
2019-03-28T23:19:21.065Z,50.17
2019-03-28T23:22:09.532Z,47.77
2019-03-28T23:24:58.073Z,49.83
2019-03-28T23:27:47.004Z,49.83
2019-03-28T23:30:31.693Z,48.10
2019-03-28T23:33:20.405Z,48.07
2019-03-28T23:36:09.024Z,48.80
2019-03-28T23:38:58.113Z,48.77
2019-03-28T23:41:47.786Z,46.37
2019-03-28T23:44:36.952Z,45.40
2019-03-28T23:47:25.565Z,45.47
2019-03-28T23:50:13.928Z,48.47
2019-03-28T23:53:02.786Z,47.20
2019-03-28T23:55:51.095Z,47.83
2019-03-28T23:58:39.233Z,45.60
